Time;durP1;ratioP1;P1;durP2;ratioP2;P2;SDS_P1;SDS_P2;PMS_P1;PMS_P2;Temp;Humidity;BMP_temperature;BMP_pressure;BME280_temperature;BME280_humidity;BME280_pressure;Samples;Min_cycle;Max_cycle;Signal;HPM_P1;HPM_P2
2023/09/06 00:00:43;;;;;;;5.80;3.60;;;13.70;99.90;;;-144.05;85.51;56867.94;5014585;28;20061;-81
2023/09/06 00:03:11;;;;;;;8.95;4.28;;;13.50;99.90;;;-144.05;85.80;56848.84;5015069;28;20447;-81
2023/09/06 00:05:41;;;;;;;6.88;3.58;;;17.40;99.90;;;-144.05;86.04;56850.97;5014592;28;20540;-80
2023/09/06 00:08:14;;;;;;;8.73;4.00;;;17.10;99.90;;;-144.05;86.10;56891.31;5013329;28;20029;-80
2023/09/06 00:10:44;;;;;;;9.13;4.03;;;;;;;-144.05;86.39;56870.06;5014505;28;20026;-82
2023/09/06 00:13:12;;;;;;;10.93;4.18;;;13.50;99.90;;;-144.05;86.47;56889.19;5014862;28;20030;-80
2023/09/06 00:15:39;;;;;;;4.57;3.72;;;16.70;99.90;;;-144.05;86.52;56880.69;5014681;28;20076;-78
2023/09/06 00:18:06;;;;;;;7.65;3.75;;;16.90;99.90;;;-144.05;86.42;56878.56;5014627;28;20509;-80
2023/09/06 00:20:38;;;;;;;5.72;3.83;;;16.50;99.90;;;-144.05;86.97;56882.81;5014347;28;20398;-78
2023/09/06 00:23:13;;;;;;;6.10;4.32;;;16.50;99.90;;;-144.05;87.05;56870.06;5014863;28;20024;-82
2023/09/06 00:25:39;;;;;;;9.97;3.90;;;16.90;99.90;;;-144.05;86.98;56867.94;5012392;28;20030;-81
2023/09/06 00:28:06;;;;;;;6.63;4.18;;;15.70;99.90;;;-144.05;86.90;56878.56;5014746;28;20096;-80
2023/09/06 00:30:33;;;;;;;5.35;3.45;;;;;;;-144.05;87.13;56874.31;5014376;28;20026;-80
2023/09/06 00:33:05;;;;;;;6.95;4.10;;;17.20;99.90;;;-144.05;87.30;56867.94;5014780;28;20497;-81
2023/09/06 00:35:32;;;;;;;8.15;4.25;;;;;;;-144.05;87.15;56846.72;5014978;28;20038;-82
2023/09/06 00:38:01;;;;;;;6.45;4.03;;;;;;;-144.05;87.17;56865.81;5030107;28;20053;-80
2023/09/06 00:40:29;;;;;;;5.47;3.45;;;16.10;99.90;;;-144.05;87.22;56861.56;5014806;28;20053;-82
2023/09/06 00:43:00;;;;;;;5.45;3.70;;;16.00;99.90;;;-144.05;86.95;56853.09;5013039;28;20077;-80
2023/09/06 00:45:53;;;;;;;6.70;3.53;;;15.50;99.90;;;-144.05;86.94;56876.44;5014088;28;20049;-81
2023/09/06 00:48:26;;;;;;;4.72;3.35;;;16.30;99.90;;;-144.05;87.23;56859.47;5012578;28;20055;-80
2023/09/06 00:50:56;;;;;;;7.32;3.97;;;15.40;99.90;;;-144.05;87.24;56880.69;5023114;28;20096;-83
2023/09/06 00:53:26;;;;;;;6.15;4.20;;;16.30;99.90;;;-144.05;87.17;56857.34;5018676;28;20100;-84
2023/09/06 00:55:53;;;;;;;4.97;3.63;;;16.80;99.90;;;-144.05;87.11;56874.31;5016635;28;20366;-83
2023/09/06 00:58:20;;;;;;;6.85;3.75;;;15.40;99.90;;;-144.05;87.33;56897.69;5013880;28;20034;-82
2023/09/06 01:00:50;;;;;;;10.75;4.07;;;12.20;99.90;;;-144.05;87.13;56867.94;5015107;28;20722;-83
2023/09/06 01:03:17;;;;;;;6.15;4.15;;;16.50;99.90;;;-144.05;87.62;56865.81;5015037;28;20040;-84
2023/09/06 01:06:31;;;;;;;5.53;3.83;;;16.70;99.90;;;-144.05;87.58;56855.22;5014655;28;20028;-82
2023/09/06 01:09:05;;;;;;;5.93;3.50;;;16.70;99.90;;;-144.05;87.58;56874.31;5001778;28;20037;-80
2023/09/06 01:11:36;;;;;;;5.65;3.90;;;16.40;99.90;;;-144.05;87.66;56848.84;5015092;28;20037;-81
2023/09/06 01:14:03;;;;;;;8.13;4.22;;;11.90;99.90;;;-144.05;87.81;56870.06;5014548;28;20034;-82
2023/09/06 01:16:43;;;;;;;6.35;3.83;;;16.70;99.90;;;-144.05;87.87;56882.81;5015288;28;20026;-81
2023/09/06 01:19:15;;;;;;;5.95;3.63;;;16.60;99.90;;;-144.05;88.00;56891.31;5015353;28;20029;-82
2023/09/06 01:22:26;;;;;;;5.15;3.53;;;16.90;99.90;;;-144.05;87.95;56859.47;5014601;28;20065;-82
2023/09/06 01:24:53;;;;;;;4.97;3.40;;;11.70;99.90;;;-144.05;88.15;56863.69;5013446;28;20021;-81
2023/09/06 01:27:20;;;;;;;6.40;3.60;;;16.90;99.90;;;-144.05;87.92;56889.19;5013018;28;20053;-80
2023/09/06 01:29:47;;;;;;;5.47;4.03;;;;;;;-144.05;88.02;56855.22;5012432;28;20037;-81
2023/09/06 01:32:14;;;;;;;6.25;4.03;;;15.00;99.90;;;-144.05;88.19;56874.31;5012557;28;20128;-82
2023/09/06 01:34:40;;;;;;;9.30;4.15;;;16.90;99.90;;;-144.05;88.05;56891.31;5014075;28;20033;-82
2023/09/06 01:37:06;;;;;;;8.35;3.95;;;;;;;-144.05;88.11;56850.97;5012172;28;20079;-82
2023/09/06 01:39:32;;;;;;;6.03;3.65;;;;;;;-144.05;88.15;56874.31;5012322;28;20168;-81
2023/09/06 01:41:58;;;;;;;6.13;3.83;;;16.60;99.90;;;-144.05;87.76;56861.56;5013644;28;20405;-82
2023/09/06 01:44:26;;;;;;;8.00;3.63;;;;;;;-144.05;87.88;56887.06;5012042;28;20092;-81
2023/09/06 01:46:52;;;;;;;5.25;3.72;;;11.20;99.90;;;-144.05;88.25;56872.19;5012174;28;20369;-81
2023/09/06 01:49:18;;;;;;;5.55;3.63;;;11.30;99.90;;;-144.05;88.28;56861.56;5013734;28;20021;-82
2023/09/06 01:51:44;;;;;;;7.60;3.67;;;16.50;99.90;;;-144.05;88.23;56863.69;5013412;28;20026;-83
2023/09/06 01:54:11;;;;;;;5.78;3.70;;;11.30;99.90;;;-144.05;88.28;56874.31;5017005;28;20022;-81
2023/09/06 01:56:37;;;;;;;5.88;3.28;;;16.10;99.90;;;-144.05;88.15;56870.06;5033144;28;20026;-83
2023/09/06 01:59:03;;;;;;;7.90;4.10;;;16.40;99.90;;;-144.05;88.01;56880.69;5031877;28;20032;-81
2023/09/06 02:01:30;;;;;;;5.53;3.70;;;;;;;-144.05;88.00;56870.06;5047951;28;20028;-82
2023/09/06 02:03:57;;;;;;;7.03;3.90;;;;;;;-144.05;87.90;56861.56;5035647;28;20104;-81
2023/09/06 02:06:23;;;;;;;6.28;3.90;;;;;;;-144.05;88.15;56846.72;5032995;28;20033;-81
2023/09/06 02:08:49;;;;;;;5.75;3.88;;;11.80;99.90;;;-144.05;88.00;56876.44;5048696;28;20029;-81
2023/09/06 02:11:15;;;;;;;5.85;4.00;;;15.80;99.90;;;-144.05;88.25;56861.56;5032956;28;20033;-80
2023/09/06 02:13:41;;;;;;;6.53;3.67;;;16.30;99.90;;;-144.05;88.18;56884.94;5037558;28;20457;-80
2023/09/06 02:16:06;;;;;;;5.20;3.45;;;11.60;99.90;;;-144.05;87.94;56846.72;5040064;28;20045;-80
2023/09/06 02:18:32;;;;;;;6.78;3.45;;;16.30;99.90;;;-144.05;87.85;56878.56;5040915;28;20163;-81
2023/09/06 02:20:59;;;;;;;5.53;3.67;;;16.20;99.90;;;-144.05;87.97;56884.94;5040955;28;20535;-81
2023/09/06 02:23:25;;;;;;;7.25;3.63;;;15.60;99.90;;;-144.05;87.98;56880.69;5040442;28;20025;-80
2023/09/06 02:25:50;;;;;;;5.53;3.47;;;16.10;99.90;;;-144.05;87.81;56897.69;5055132;28;20025;-81
2023/09/06 02:28:17;;;;;;;9.45;3.60;;;15.70;99.90;;;-144.05;87.74;56853.09;5035228;28;20484;-81
2023/09/06 02:30:43;;;;;;;4.85;3.45;;;16.10;99.90;;;-144.05;88.09;56874.31;5047547;28;20037;-81
2023/09/06 02:33:13;;;;;;;4.68;3.38;;;16.40;99.90;;;-144.05;87.92;56863.69;5032581;28;20026;-80
2023/09/06 02:35:43;;;;;;;6.40;3.75;;;;;;;-144.05;87.98;56861.56;5047956;28;20029;-81
2023/09/06 02:38:12;;;;;;;6.35;3.97;;;16.30;99.90;;;-144.05;87.93;56891.31;5032393;28;20369;-80
2023/09/06 02:40:42;;;;;;;7.07;3.15;;;10.80;99.90;;;-144.05;87.79;56865.81;5031986;28;20036;-81
2023/09/06 02:43:10;;;;;;;4.22;3.40;;;16.10;99.90;;;-144.05;88.02;56876.44;5032219;28;20025;-82
2023/09/06 02:45:37;;;;;;;5.55;3.33;;;16.10;99.90;;;-144.05;88.12;56884.94;5031103;28;20033;-82
2023/09/06 02:48:15;;;;;;;5.80;3.38;;;16.30;99.90;;;-144.05;87.92;56859.47;5032156;28;20029;-82
2023/09/06 02:50:43;;;;;;;5.32;3.33;;;16.40;99.90;;;-144.05;87.54;56870.06;5035327;28;20112;-80
2023/09/06 02:53:19;;;;;;;7.07;3.45;;;;;;;-144.05;87.99;56861.56;5034386;28;20033;-80
2023/09/06 02:55:48;;;;;;;4.28;3.17;;;;;;;-144.05;88.09;56850.97;5035776;28;20029;-81
2023/09/06 02:58:18;;;;;;;7.25;3.78;;;16.10;99.90;;;-144.05;88.00;56893.44;5035671;28;20041;-82
2023/09/06 03:00:47;;;;;;;7.00;3.70;;;15.90;99.90;;;-144.05;87.85;56867.94;5035849;28;20106;-79
2023/09/06 03:03:15;;;;;;;5.55;3.65;;;;;;;-144.05;88.03;56861.56;5036230;28;20056;-81
2023/09/06 03:05:42;;;;;;;8.50;3.85;;;11.10;99.90;;;-144.05;88.23;56874.31;5036546;28;20033;-81
2023/09/06 03:08:13;;;;;;;6.35;3.58;;;10.80;99.90;;;-144.05;88.30;56855.22;5052072;28;20065;-83
2023/09/06 03:10:41;;;;;;;6.07;3.53;;;10.80;99.90;;;-144.05;88.22;56861.56;5036243;28;20468;-81
2023/09/06 03:13:10;;;;;;;7.30;3.58;;;;;;;-144.05;88.37;56880.69;5036669;28;20038;-82
2023/09/06 03:15:36;;;;;;;8.90;3.83;;;10.60;99.90;;;-144.05;88.42;56897.69;5035867;28;20049;-82
2023/09/06 03:18:05;;;;;;;6.07;3.50;;;10.80;99.90;;;-144.05;88.75;56861.56;5036807;28;20412;-81
2023/09/06 03:20:31;;;;;;;8.38;3.80;;;16.30;99.90;;;-144.05;88.43;56880.69;5052921;28;20029;-81
2023/09/06 03:23:16;;;;;;;7.20;3.78;;;16.40;99.90;;;-144.05;88.61;56876.44;5051907;28;20052;-81
2023/09/06 03:25:45;;;;;;;9.13;4.15;;;;;;;-144.05;88.60;56863.69;5052221;28;20037;-81
2023/09/06 03:28:12;;;;;;;10.15;4.03;;;;;;;-144.05;88.77;56861.56;5036974;28;20026;-81
2023/09/06 03:30:38;;;;;;;5.65;3.53;;;16.10;99.90;;;-144.05;88.53;56884.94;5052744;28;20052;-82
2023/09/06 03:33:06;;;;;;;7.57;3.80;;;11.20;99.90;;;-144.05;88.66;56827.59;5037491;28;20033;-81
2023/09/06 03:35:32;;;;;;;8.10;4.20;;;16.00;99.90;;;-144.05;88.96;56889.19;5038063;28;20029;-83
2023/09/06 03:37:59;;;;;;;7.82;3.85;;;;;;;-144.05;88.90;56865.81;5051620;28;20183;-82
2023/09/06 03:40:34;;;;;;;5.70;3.30;;;10.90;99.90;;;-144.05;88.88;56880.69;5035670;28;20036;-83
2023/09/06 03:43:19;;;;;;;6.78;3.88;;;;;;;-144.05;89.01;56870.06;5036397;28;20091;-82
2023/09/06 03:45:54;;;;;;;6.10;3.67;;;14.30;99.90;;;-144.05;89.09;56878.56;5037052;28;20029;-80
2023/09/06 03:48:23;;;;;;;5.13;3.42;;;11.10;99.90;;;-144.05;89.06;56872.19;5035966;28;20044;-80
2023/09/06 03:50:57;;;;;;;5.80;3.88;;;10.90;99.90;;;-144.05;89.01;56857.34;5052497;28;20057;-83
2023/09/06 03:53:27;;;;;;;6.47;4.05;;;;;;;-144.05;89.19;56850.97;5037833;28;20099;-83
2023/09/06 03:55:57;;;;;;;6.90;4.00;;;16.10;99.90;;;-144.05;89.24;56874.31;5037670;28;20507;-83
2023/09/06 03:58:29;;;;;;;8.00;4.32;;;15.90;99.90;;;-144.05;89.31;56874.31;5037878;28;20033;-83
2023/09/06 04:00:55;;;;;;;5.45;3.75;;;15.50;99.90;;;-144.05;89.21;56870.06;5036369;28;20037;-84
2023/09/06 04:03:22;;;;;;;7.68;3.83;;;14.20;99.90;;;-144.05;89.15;56882.81;5049871;28;20040;-83
2023/09/06 04:05:50;;;;;;;7.57;4.20;;;;;;;-144.05;89.44;56878.56;5054842;28;20025;-82
2023/09/06 04:08:19;;;;;;;4.18;3.17;;;11.00;99.90;;;-144.05;89.38;56906.19;5051852;28;20022;-82
2023/09/06 04:10:46;;;;;;;5.65;3.67;;;;;;;-144.05;89.40;56872.19;5050714;28;20044;-83
2023/09/06 04:13:14;;;;;;;4.38;3.13;;;15.90;99.90;;;-144.05;89.49;56870.06;5068415;28;20093;-81
2023/09/06 04:15:44;;;;;;;6.80;3.25;;;;;;;-144.05;89.61;56857.34;5059495;28;20058;-81
2023/09/06 04:18:12;;;;;;;6.10;4.40;;;15.50;99.90;;;-144.05;89.41;56863.69;5050165;28;20651;-83
2023/09/06 04:20:46;;;;;;;8.15;3.83;;;14.20;99.90;;;-144.05;89.61;56853.09;5034661;28;20033;-80
2023/09/06 04:23:13;;;;;;;5.25;3.70;;;16.30;99.90;;;-144.05;89.55;56872.19;5050007;28;20132;-81
2023/09/06 04:25:44;;;;;;;5.72;4.13;;;15.80;99.90;;;-144.05;89.56;56887.06;5032766;28;20535;-81
2023/09/06 04:28:16;;;;;;;6.45;3.80;;;14.30;99.90;;;-144.05;89.53;56876.44;5034370;28;20053;-80
2023/09/06 04:30:47;;;;;;;6.45;3.33;;;16.20;99.90;;;-144.05;89.51;56857.34;5033906;28;20599;-81
2023/09/06 04:33:14;;;;;;;6.90;4.18;;;16.30;99.90;;;-144.05;89.48;56870.06;5049347;28;20029;-81
2023/09/06 04:35:48;;;;;;;5.55;3.80;;;16.10;99.90;;;-144.05;89.47;56870.06;5035769;28;20505;-83
2023/09/06 04:38:23;;;;;;;5.43;3.25;;;11.00;99.90;;;-144.05;89.33;56857.34;5036238;28;20032;-83
2023/09/06 04:40:51;;;;;;;5.65;3.70;;;11.20;99.90;;;-144.05;89.45;56867.94;5035487;28;20033;-81
2023/09/06 04:43:18;;;;;;;6.45;3.33;;;11.00;99.90;;;-144.05;89.24;56850.97;5036034;28;20397;-79
2023/09/06 04:45:47;;;;;;;4.13;3.03;;;14.20;99.90;;;-144.05;89.32;56876.44;5034984;28;20033;-82
2023/09/06 04:48:17;;;;;;;10.27;3.42;;;14.10;99.90;;;-144.05;89.18;56874.31;5033968;28;20030;-82
2023/09/06 04:50:44;;;;;;;4.68;3.58;;;11.10;99.90;;;-144.05;88.91;56861.56;5034706;28;20029;-81
2023/09/06 04:53:12;;;;;;;7.22;3.67;;;10.90;99.90;;;-144.05;89.08;56889.19;5034593;28;20053;-80
2023/09/06 04:55:39;;;;;;;5.68;3.45;;;14.00;99.90;;;-144.05;89.06;56889.19;5035330;28;20021;-83
2023/09/06 04:58:09;;;;;;;6.53;3.22;;;14.00;99.90;;;-144.05;89.11;56872.19;5037262;28;20075;-80
2023/09/06 05:00:47;;;;;;;9.65;3.85;;;16.20;99.90;;;-144.05;88.95;56891.31;5035051;28;20025;-81
2023/09/06 05:03:17;;;;;;;5.85;3.65;;;15.80;99.90;;;-144.05;89.28;56882.81;5036666;28;20160;-81
2023/09/06 05:05:45;;;;;;;8.52;3.67;;;15.60;99.90;;;-144.05;88.81;56867.94;5034921;28;20025;-80
2023/09/06 05:08:11;;;;;;;4.47;3.30;;;11.10;99.90;;;-144.05;88.85;56870.06;5050221;28;20499;-79
2023/09/06 05:10:41;;;;;;;5.47;3.58;;;16.20;99.90;;;-144.05;88.66;56872.19;5035251;28;20030;-82
2023/09/06 05:13:07;;;;;;;4.90;3.47;;;15.90;99.90;;;-144.05;88.53;56867.94;5034499;28;20030;-82
2023/09/06 05:15:35;;;;;;;4.75;3.33;;;16.20;99.90;;;-144.05;88.20;56887.06;5051004;28;20374;-82
2023/09/06 05:18:06;;;;;;;6.80;3.53;;;11.40;99.90;;;-144.05;88.30;56878.56;5034877;28;20036;-82
2023/09/06 05:20:39;;;;;;;6.43;3.60;;;14.30;99.90;;;-144.05;88.21;56880.69;5034365;28;20397;-79
2023/09/06 05:23:13;;;;;;;6.32;3.10;;;16.10;99.90;;;-144.05;88.12;56884.94;5034403;28;20041;-82
2023/09/06 05:25:42;;;;;;;5.15;3.30;;;15.90;99.90;;;-144.05;88.08;56870.06;5049631;28;20036;-83
2023/09/06 05:28:12;;;;;;;10.65;4.13;;;14.50;99.90;;;-144.05;88.03;56891.31;5034518;28;20025;-80
2023/09/06 05:30:44;;;;;;;4.97;3.63;;;15.70;99.90;;;-144.05;88.10;56897.69;5034378;28;20041;-82
2023/09/06 05:33:12;;;;;;;9.88;4.10;;;;;;;-144.05;87.98;56870.06;5032611;28;20515;-80
2023/09/06 05:35:38;;;;;;;12.70;4.22;;;16.30;99.90;;;-144.05;87.87;56910.44;5048830;28;20116;-79
2023/09/06 05:38:04;;;;;;;8.90;3.83;;;16.10;99.90;;;-144.05;87.69;56865.81;5033738;28;20068;-81
2023/09/06 05:40:33;;;;;;;6.97;4.07;;;12.10;99.90;;;-144.05;87.88;56863.69;5033691;28;20188;-82
2023/09/06 05:42:59;;;;;;;7.55;3.55;;;;;;;-144.05;87.65;56880.69;5049027;28;20048;-81
2023/09/06 05:45:26;;;;;;;7.00;3.65;;;12.40;99.90;;;-144.05;87.35;56895.56;5034289;28;20034;-80
2023/09/06 05:47:53;;;;;;;7.63;3.65;;;12.50;99.90;;;-144.05;87.35;56893.44;5049240;28;20037;-79
2023/09/06 05:50:19;;;;;;;6.55;3.85;;;12.30;99.90;;;-144.05;87.21;56870.06;5034187;28;20083;-81
2023/09/06 05:52:46;;;;;;;6.32;3.25;;;16.90;99.90;;;-144.05;86.72;56880.69;5033714;28;20029;-80
2023/09/06 05:55:12;;;;;;;6.70;3.58;;;16.70;99.90;;;-144.05;86.62;56865.81;5033387;28;20051;-83
2023/09/06 05:57:39;;;;;;;5.22;3.35;;;13.00;99.90;;;-144.05;86.55;56870.06;5033945;28;20082;-81
2023/09/06 06:00:12;;;;;;;11.15;3.67;;;13.20;99.90;;;-144.05;86.80;56876.44;5031962;28;20034;-80
2023/09/06 06:02:45;;;;;;;8.68;3.63;;;13.60;99.90;;;-144.05;87.17;56874.31;5033244;28;20405;-80
2023/09/06 06:05:12;;;;;;;5.57;3.10;;;13.60;99.90;;;-144.05;86.30;56857.34;5031507;28;20029;-82
2023/09/06 06:07:39;;;;;;;5.55;2.92;;;14.20;99.90;;;-144.05;85.47;56891.31;5047385;28;20060;-80
2023/09/06 06:10:10;;;;;;;5.63;2.85;;;18.20;99.90;;;-144.05;83.72;56897.69;5031778;28;20026;-80
2023/09/06 06:12:38;;;;;;;3.72;2.50;;;14.30;99.90;;;-144.05;81.56;56891.31;5047755;28;20025;-80
2023/09/06 06:15:12;;;;;;;4.15;2.45;;;18.80;99.90;;;-144.05;79.33;56929.53;5047307;28;20032;-75
2023/09/06 06:17:38;;;;;;;5.32;2.42;;;;;;;-144.05;76.35;56908.31;5047107;28;20167;-77
2023/09/06 06:20:06;;;;;;;6.50;2.28;;;15.00;99.90;;;-144.05;75.14;56891.31;5032814;28;20441;-81
2023/09/06 06:22:38;;;;;;;7.53;2.42;;;19.30;99.90;;;-144.05;72.19;56931.66;5033596;28;20079;-78
2023/09/06 06:25:08;;;;;;;5.85;2.53;;;19.60;99.90;;;-144.05;70.44;56940.16;5033617;28;20026;-85
2023/09/06 06:27:34;;;;;;;3.95;2.58;;;19.20;99.90;;;-144.05;69.10;56904.06;5034101;28;20029;-85
2023/09/06 06:30:00;;;;;;;5.55;2.50;;;19.80;99.90;;;-144.05;67.08;56933.78;5034091;28;20025;-83
2023/09/06 06:32:26;;;;;;;3.78;2.10;;;;;;;-144.05;66.98;56955.03;5034004;28;20033;-82
2023/09/06 06:34:54;;;;;;;3.85;2.15;;;;;;;-144.05;66.50;56931.66;5034109;28;20040;-83
2023/09/06 06:37:22;;;;;;;7.32;2.35;;;21.40;99.90;;;-144.05;64.21;56963.53;5036901;28;20174;-83
2023/09/06 06:39:49;;;;;;;3.08;2.22;;;;;;;-144.05;61.26;56940.16;5036349;28;20155;-85
2023/09/06 06:42:14;;;;;;;4.47;2.28;;;21.80;99.90;;;-144.05;59.52;56974.16;5034718;28;20026;-82
2023/09/06 06:44:48;;;;;;;4.97;2.38;;;21.40;99.90;;;-144.05;58.14;56959.28;5048546;28;20472;-81
2023/09/06 06:47:16;;;;;;;4.07;2.10;;;;;;;-144.05;59.10;56948.66;5048681;28;20026;-82
2023/09/06 06:49:43;;;;;;;3.53;2.30;;;;;;;-144.05;61.00;56969.91;5048480;28;20029;-83
2023/09/06 06:52:09;;;;;;;5.10;2.40;;;;;;;-144.05;60.87;56938.03;5033099;28;20030;-81
2023/09/06 06:54:40;;;;;;;6.65;2.28;;;22.90;99.90;;;-144.05;60.92;56942.28;5032510;28;20022;-84
2023/09/06 06:57:07;;;;;;;6.05;2.10;;;23.10;99.90;;;-144.05;61.66;56972.03;5032595;28;20029;-85
2023/09/06 06:59:34;;;;;;;3.60;2.60;;;;;;;-144.05;61.42;56948.66;5032044;28;20026;-84
2023/09/06 07:02:00;;;;;;;3.80;2.40;;;19.70;99.90;;;-144.05;60.10;56965.66;5032548;28;20033;-82
2023/09/06 07:04:27;;;;;;;5.55;2.45;;;19.80;99.90;;;-144.05;60.77;56978.41;5032384;28;20111;-79
2023/09/06 07:06:53;;;;;;;3.65;2.20;;;;;;;-144.05;59.08;56980.53;5030512;28;20505;-81
2023/09/06 07:09:19;;;;;;;3.60;2.58;;;19.40;99.90;;;-144.05;58.45;56974.16;5046675;28;20033;-80
2023/09/06 07:11:45;;;;;;;3.65;2.10;;;19.50;99.90;;;-144.05;57.95;56967.78;5031905;28;20080;-80
2023/09/06 07:14:11;;;;;;;6.47;2.65;;;24.20;99.90;;;-144.05;58.05;56982.66;5046489;28;20049;-82
2023/09/06 07:16:37;;;;;;;7.40;2.92;;;;;;;-144.05;54.90;57001.75;5030515;28;20029;-80
2023/09/06 07:19:04;;;;;;;4.38;2.45;;;;;;;-144.05;54.69;56993.25;5031553;28;20618;-79
2023/09/06 07:21:31;;;;;;;4.63;2.67;;;24.40;99.90;;;-144.05;53.55;57010.25;5030223;28;20030;-79
2023/09/06 07:23:57;;;;;;;4.50;2.53;;;;;;;-144.05;53.01;56982.66;5031417;28;20064;-82
2023/09/06 07:26:23;;;;;;;8.57;2.58;;;20.20;99.90;;;-144.05;53.25;56986.91;5031435;28;20483;-80
2023/09/06 07:28:50;;;;;;;8.38;2.88;;;25.30;99.90;;;-144.05;52.87;56989.00;5031527;28;20065;-79
2023/09/06 07:31:17;;;;;;;6.28;2.50;;;;;;;-144.05;52.75;57029.38;5047151;28;20033;-79
2023/09/06 07:33:43;;;;;;;4.13;2.50;;;21.00;99.90;;;-144.05;52.56;57008.13;5031943;28;20036;-81
2023/09/06 07:36:11;;;;;;;4.60;2.75;;;25.50;99.90;;;-144.05;51.55;57052.75;5034265;28;20045;-80
2023/09/06 07:38:37;;;;;;;5.72;2.42;;;25.60;99.90;;;-144.05;50.08;57012.38;5036198;28;20026;-80
2023/09/06 07:41:08;;;;;;;5.63;2.60;;;25.60;99.90;;;-144.05;47.91;57054.88;5035582;28;20124;-79
2023/09/06 07:43:37;;;;;;;3.75;2.38;;;25.00;99.90;;;-144.05;47.29;57063.34;5050597;28;20025;-81
2023/09/06 07:46:08;;;;;;;3.53;2.33;;;25.60;99.90;;;-144.05;46.85;57052.75;5051568;28;20116;-79
2023/09/06 07:48:36;;;;;;;4.68;2.00;;;;;;;-144.05;46.27;57088.84;5035832;28;20397;-80
2023/09/06 07:51:04;;;;;;;3.97;1.90;;;26.80;99.90;;;-144.05;46.70;57069.72;5034419;28;20045;-79
2023/09/06 07:53:30;;;;;;;2.20;1.67;;;;;;;-144.05;45.44;57095.22;5051256;28;20029;-79
2023/09/06 07:55:56;;;;;;;2.50;1.80;;;27.60;99.90;;;-144.05;44.47;57084.59;5035776;28;20033;-79
2023/09/06 07:58:23;;;;;;;3.08;1.90;;;;;;;-144.05;42.52;57065.47;5046018;28;20049;-80
2023/09/06 08:00:51;;;;;;;2.97;2.10;;;26.20;99.90;;;-144.05;42.57;57101.59;5056068;28;20033;-80
2023/09/06 08:03:17;;;;;;;6.45;1.90;;;24.20;99.90;;;-144.05;41.56;57086.72;5036901;28;20428;-81
2023/09/06 08:05:43;;;;;;;3.72;2.00;;;;;;;-144.05;40.91;57093.09;5036570;28;20048;-81
2023/09/06 08:08:10;;;;;;;4.38;2.22;;;26.40;99.90;;;-144.05;40.79;57095.22;5036786;28;20025;-80
2023/09/06 08:10:38;;;;;;;5.13;2.40;;;22.70;99.90;;;-144.05;39.87;57084.59;5036000;28;20033;-82
2023/09/06 08:13:05;;;;;;;6.82;2.08;;;22.90;99.90;;;-144.05;40.41;57116.47;5035775;28;20080;-82
2023/09/06 08:15:33;;;;;;;3.35;2.05;;;24.60;99.90;;;-144.05;39.77;57107.97;5034192;28;20025;-81
2023/09/06 08:17:59;;;;;;;3.35;2.10;;;23.30;99.90;;;-144.05;39.55;57076.09;5035977;28;20029;-81
2023/09/06 08:20:26;;;;;;;4.65;2.33;;;24.90;99.90;;;-144.05;39.07;57122.84;5035323;28;20108;-81
2023/09/06 08:22:51;;;;;;;5.63;2.65;;;28.40;99.90;;;-144.05;39.67;57124.97;5033361;28;20485;-77
2023/09/06 08:25:18;;;;;;;4.65;2.80;;;;;;;-144.05;38.47;57144.06;5049766;28;20114;-79
2023/09/06 08:27:44;;;;;;;5.28;2.05;;;28.60;99.90;;;-144.05;38.48;57127.09;5039455;28;20080;-79
2023/09/06 08:30:15;;;;;;;4.25;2.17;;;28.20;99.90;;;-144.05;38.72;57122.84;5047565;28;20036;-81
2023/09/06 08:32:44;;;;;;;4.93;2.42;;;28.30;99.90;;;-144.05;39.53;57144.06;5046785;28;20085;-80
2023/09/06 08:35:14;;;;;;;6.47;3.03;;;23.20;99.90;;;-144.05;39.56;57112.22;5047891;28;20021;-78
2023/09/06 08:37:40;;;;;;;6.32;2.72;;;;;;;-144.05;39.36;57127.09;5041843;28;20057;-81
2023/09/06 08:40:08;;;;;;;3.28;2.42;;;28.60;99.90;;;-144.05;38.66;57118.59;5051356;28;20021;-83
2023/09/06 08:42:35;;;;;;;5.32;2.40;;;28.70;99.90;;;-144.05;38.63;57144.06;5036430;28;20036;-78
2023/09/06 08:45:09;;;;;;;6.55;3.08;;;27.40;99.90;;;-144.05;38.61;57146.19;5051695;28;20030;-82
2023/09/06 08:47:41;;;;;;;5.20;2.78;;;25.20;99.90;;;-144.05;38.46;57146.19;5035281;28;20145;-82
2023/09/06 08:50:10;;;;;;;6.35;2.70;;;25.50;99.90;;;-144.05;38.28;57154.69;5033664;28;20392;-81
2023/09/06 08:52:43;;;;;;;5.03;2.55;;;29.00;99.90;;;-144.05;38.08;57158.94;5034474;28;20025;-79
2023/09/06 08:55:11;;;;;;;5.60;2.80;;;28.10;99.90;;;-144.05;37.34;57169.56;5034270;28;20034;-81
2023/09/06 08:57:41;;;;;;;5.60;2.72;;;26.00;99.90;;;-144.05;37.49;57161.06;5049754;28;20485;-81
2023/09/06 09:00:11;;;;;;;6.53;3.13;;;25.20;99.90;;;-144.05;37.38;57192.94;5049450;28;20030;-81
2023/09/06 09:02:42;;;;;;;8.68;2.95;;;25.20;99.90;;;-144.05;36.61;57173.81;5034532;28;20114;-79
2023/09/06 09:05:11;;;;;;;4.20;2.42;;;29.70;99.90;;;-144.05;37.24;57180.19;5033915;28;20021;-80
2023/09/06 09:07:37;;;;;;;3.95;2.70;;;25.80;99.90;;;-144.05;36.77;57180.19;5033519;28;20041;-80
2023/09/06 09:10:13;;;;;;;8.57;3.13;;;28.20;99.90;;;-144.05;36.60;57184.44;5033591;28;20037;-82
2023/09/06 09:12:40;;;;;;;4.75;2.78;;;28.40;99.90;;;-144.05;36.00;57214.16;5035250;28;20056;-81
2023/09/06 09:15:08;;;;;;;6.82;2.67;;;28.40;99.90;;;-144.05;35.20;57188.69;5035343;28;20030;-80
2023/09/06 09:17:38;;;;;;;3.67;2.30;;;25.80;99.90;;;-144.05;36.38;57167.44;5034647;28;20037;-82
2023/09/06 09:20:05;;;;;;;4.25;2.65;;;25.40;99.90;;;-144.05;35.40;57167.44;5034240;28;20553;-83
2023/09/06 09:22:37;;;;;;;5.57;3.03;;;28.70;99.90;;;-144.05;35.90;57218.41;5035332;28;20095;-81
2023/09/06 09:25:16;;;;;;;4.43;3.00;;;29.90;99.90;;;-144.05;34.67;57231.16;5050156;28;20447;-82
2023/09/06 09:27:51;;;;;;;3.85;2.78;;;30.00;99.90;;;-144.05;34.83;57218.41;5050480;28;20030;-83
2023/09/06 09:30:18;;;;;;;4.18;2.83;;;;;;;-144.05;34.71;57235.41;5035568;28;20481;-82
2023/09/06 09:32:44;;;;;;;5.32;2.42;;;30.00;99.90;;;-144.05;33.26;57239.66;5034707;28;20112;-81
2023/09/06 09:35:12;;;;;;;2.90;2.47;;;30.20;99.90;;;-144.05;32.68;57235.41;5034998;28;20512;-80
2023/09/06 09:37:51;;;;;;;6.13;2.50;;;26.60;99.80;;;-144.05;33.16;57243.91;5049332;28;20174;-81
2023/09/06 09:40:32;;;;;;;3.17;2.20;;;30.70;99.90;;;-144.05;33.35;57248.16;5032814;28;20523;-81
2023/09/06 09:43:06;;;;;;;3.20;2.50;;;29.60;99.90;;;-144.05;32.96;57256.66;5033093;28;20040;-79
2023/09/06 09:45:45;;;;;;;3.83;2.53;;;26.50;98.90;;;-144.05;33.57;57254.53;5033107;28;20029;-81
2023/09/06 09:48:12;;;;;;;7.65;2.70;;;31.30;99.90;;;-144.05;33.42;57267.28;5033722;28;20034;-79
2023/09/06 09:50:42;;;;;;;3.17;2.35;;;;;;;-144.05;33.41;57248.16;5034623;28;20030;-80
2023/09/06 09:53:09;;;;;;;3.65;2.22;;;31.40;98.80;;;-144.05;32.76;57265.16;5036003;28;20393;-80
2023/09/06 09:55:44;;;;;;;5.15;2.58;;;31.80;99.90;;;-144.05;33.37;57248.16;5036372;28;20025;-79
2023/09/06 09:58:13;;;;;;;4.38;2.65;;;31.50;99.90;;;-144.05;33.44;57256.66;5037364;28;20029;-81
2023/09/06 10:00:41;;;;;;;3.38;2.45;;;26.70;98.30;;;-144.05;33.43;57297.00;5051536;28;20033;-81
2023/09/06 10:03:09;;;;;;;5.20;2.38;;;27.10;97.10;;;-144.05;32.71;57282.16;5052601;28;20072;-81
2023/09/06 10:05:38;;;;;;;5.78;2.60;;;32.10;99.60;;;-144.05;33.26;57326.75;5037379;28;20059;-80
2023/09/06 10:08:08;;;;;;;4.97;2.40;;;31.90;98.70;;;-144.05;32.91;57275.78;5035467;28;20500;-79
2023/09/06 10:10:40;;;;;;;4.68;2.30;;;32.10;98.80;;;-144.05;32.75;57322.50;5034149;28;20037;-80
2023/09/06 10:13:10;;;;;;;4.07;2.75;;;;;;;-144.05;33.15;57314.00;5035404;28;20026;-80
2023/09/06 10:15:37;;;;;;;4.13;2.38;;;30.40;98.60;;;-144.05;33.30;57318.25;5033898;28;20115;-78
2023/09/06 10:18:06;;;;;;;5.20;2.63;;;30.50;98.40;;;-144.05;33.94;57286.38;5038179;28;20051;-81
2023/09/06 10:20:34;;;;;;;6.30;2.55;;;31.80;98.80;;;-144.05;33.41;57290.63;5033691;28;20029;-79
2023/09/06 10:23:02;;;;;;;3.28;2.60;;;31.80;99.90;;;-144.05;34.33;57303.38;5033764;28;20559;-82
2023/09/06 10:25:28;;;;;;;4.97;2.17;;;;;;;-144.05;33.58;57280.03;5035479;28;20083;-82